createdAt,value
2018-08-10T00:00:24.257Z,96002.78
2018-08-10T00:02:58.891Z,96010.23
2018-08-10T00:05:33.598Z,96012.33
2018-08-10T00:08:08.352Z,96014.06
2018-08-10T00:10:42.633Z,96020.62
2018-08-10T00:13:17.112Z,96005.96
2018-08-10T00:15:51.616Z,96004.02
2018-08-10T00:18:26.947Z,96004.95
2018-08-10T00:21:01.405Z,96006.48
2018-08-10T00:23:35.825Z,96013.50
2018-08-10T00:26:10.137Z,96010.05
2018-08-10T00:28:44.420Z,96016.17
2018-08-10T00:31:18.900Z,96014.53
2018-08-10T00:33:53.676Z,96018.91
2018-08-10T00:36:27.984Z,96028.86
2018-08-10T00:39:03.064Z,96029.98
2018-08-10T00:41:37.583Z,96036.39
2018-08-10T00:44:11.996Z,96041.86
2018-08-10T00:46:46.439Z,96046.34
2018-08-10T00:49:21.221Z,96050.64
2018-08-10T00:51:55.719Z,96057.06
2018-08-10T00:54:30.535Z,96060.61
2018-08-10T00:57:05.314Z,96050.41
2018-08-10T00:59:39.760Z,96046.48
2018-08-10T01:02:14.112Z,96034.03
2018-08-10T01:04:48.568Z,96024.92
2018-08-10T01:07:23.773Z,96019.42
2018-08-10T01:09:58.152Z,96026.30
2018-08-10T01:12:33.033Z,96031.13
2018-08-10T01:15:08.860Z,96025.22
2018-08-10T01:17:43.710Z,96031.17
2018-08-10T01:20:21.604Z,96029.09
2018-08-10T01:23:01.417Z,96032.78
2018-08-10T01:25:35.951Z,96029.85
2018-08-10T01:28:11.390Z,96037.48
2018-08-10T01:30:46.148Z,96030.14
2018-08-10T01:33:20.658Z,96032.88
2018-08-10T01:35:55.203Z,96037.97
2018-08-10T01:38:29.960Z,96038.77
2018-08-10T01:41:04.990Z,96045.47
2018-08-10T01:43:40.014Z,96047.81
2018-08-10T01:46:14.545Z,96048.05
2018-08-10T01:48:49.540Z,96050.52
2018-08-10T01:51:24.070Z,96057.52
2018-08-10T01:53:58.618Z,96059.13
2018-08-10T01:56:33.375Z,96053.89
2018-08-10T01:59:08.356Z,96055.79
2018-08-10T02:01:43.362Z,96069.73
2018-08-10T02:04:18.010Z,96069.22
2018-08-10T02:06:52.333Z,96065.17
2018-08-10T02:09:26.768Z,96076.29
2018-08-10T02:12:02.089Z,96072.17
2018-08-10T02:14:36.596Z,96069.88
2018-08-10T02:17:11.653Z,96077.55
2018-08-10T02:19:46.366Z,96078.97
2018-08-10T02:22:20.817Z,96076.47
2018-08-10T02:24:55.489Z,96078.17
2018-08-10T02:27:30.193Z,96071.91
2018-08-10T02:30:06.365Z,96067.81
2018-08-10T02:32:47.256Z,96063.42
2018-08-10T02:35:22.096Z,96066.63
2018-08-10T02:37:57.726Z,96069.64
2018-08-10T02:40:32.761Z,96072.89
2018-08-10T02:43:07.505Z,96073.17
2018-08-10T02:45:42.233Z,96071.45
2018-08-10T02:48:17.297Z,96071.11
2018-08-10T02:50:52.049Z,96069.79
2018-08-10T02:53:27.014Z,96069.73
2018-08-10T02:56:01.560Z,96078.00
2018-08-10T02:58:37.014Z,96076.62
2018-08-10T03:01:11.509Z,96074.78
2018-08-10T03:03:45.813Z,96076.53
2018-08-10T03:06:20.993Z,96082.50
2018-08-10T03:08:55.980Z,96085.19
2018-08-10T03:11:30.732Z,96080.20
2018-08-10T03:14:06.672Z,96075.23
2018-08-10T03:16:42.332Z,96074.49
2018-08-10T03:19:17.699Z,96075.73
2018-08-10T03:21:52.224Z,96075.30
2018-08-10T03:24:27.033Z,96081.98
2018-08-10T03:27:02.060Z,96084.70
2018-08-10T03:29:37.577Z,96081.78
2018-08-10T03:32:12.036Z,96079.94
2018-08-10T03:34:46.672Z,96082.58
2018-08-10T03:37:21.544Z,96091.83
2018-08-10T03:39:56.469Z,96084.39
2018-08-10T03:42:31.251Z,96087.03
2018-08-10T03:45:06.864Z,96083.44
2018-08-10T03:47:41.621Z,96088.72
2018-08-10T03:50:16.426Z,96083.67
2018-08-10T03:52:51.080Z,96087.97
2018-08-10T03:55:26.187Z,96091.73
2018-08-10T03:58:00.667Z,96104.70
2018-08-10T04:00:35.588Z,96102.88
2018-08-10T04:03:10.053Z,96105.88
2018-08-10T04:05:45.252Z,96104.56
2018-08-10T04:08:19.689Z,96112.42
2018-08-10T04:10:54.402Z,96107.26
2018-08-10T04:13:29.215Z,96109.01
2018-08-10T04:16:03.960Z,96121.55
2018-08-10T04:18:39.060Z,96118.68
2018-08-10T04:21:13.393Z,96126.02
2018-08-10T04:23:48.431Z,96130.64
2018-08-10T04:26:23.016Z,96134.59
2018-08-10T04:28:57.735Z,96132.77
2018-08-10T04:31:32.053Z,96137.23
2018-08-10T04:34:06.501Z,96145.94
2018-08-10T04:36:41.301Z,96149.16
2018-08-10T04:39:16.412Z,96143.30
2018-08-10T04:41:51.222Z,96148.00
2018-08-10T04:44:25.546Z,96147.77
2018-08-10T04:47:00.232Z,96152.53
2018-08-10T04:49:34.684Z,96151.16
2018-08-10T04:52:09.389Z,96155.34
2018-08-10T04:54:44.133Z,96154.43
2018-08-10T04:57:18.544Z,96163.11
2018-08-10T04:59:55.597Z,96152.44
2018-08-10T05:02:30.439Z,96156.92
2018-08-10T05:05:09.552Z,96158.95
2018-08-10T05:07:44.923Z,96162.39
2018-08-10T05:10:19.919Z,96160.42
2018-08-10T05:12:57.599Z,96167.76
2018-08-10T05:15:32.420Z,96174.19
2018-08-10T05:18:07.767Z,96181.30
2018-08-10T05:20:44.094Z,96177.44
2018-08-10T05:23:18.836Z,96182.03
2018-08-10T05:25:54.824Z,96183.92
2018-08-10T05:28:29.867Z,96185.53
2018-08-10T05:31:04.709Z,96186.62
2018-08-10T05:33:40.277Z,96190.07
2018-08-10T05:36:18.725Z,96190.42
2018-08-10T05:38:54.107Z,96191.63
2018-08-10T05:41:29.384Z,96207.38
2018-08-10T05:44:04.021Z,96215.88
2018-08-10T05:46:40.527Z,96230.98
2018-08-10T05:49:15.177Z,96230.88
2018-08-10T05:51:49.606Z,96239.75
2018-08-10T05:54:24.304Z,96241.86
2018-08-10T05:56:59.117Z,96247.25
2018-08-10T05:59:33.846Z,96260.63
2018-08-10T06:02:08.615Z,96263.38
2018-08-10T06:04:44.248Z,96272.28
2018-08-10T06:07:19.049Z,96274.73
2018-08-10T06:09:54.277Z,96281.16
2018-08-10T06:12:30.124Z,96289.20
2018-08-10T06:15:04.722Z,96292.28
2018-08-10T06:17:39.080Z,96300.09
2018-08-10T06:20:13.400Z,96300.39
2018-08-10T06:22:47.882Z,96300.39
2018-08-10T06:25:22.662Z,96305.79
2018-08-10T06:27:57.102Z,96305.53
2018-08-10T06:30:31.425Z,96305.34
2018-08-10T06:33:06.178Z,96306.59
2018-08-10T06:35:40.510Z,96309.58
2018-08-10T06:38:15.375Z,96315.36
2018-08-10T06:40:49.792Z,96325.62
2018-08-10T06:43:24.117Z,96328.09
2018-08-10T06:45:58.533Z,96338.30
2018-08-10T06:48:33.026Z,96346.86
2018-08-10T06:51:18.079Z,96353.79
2018-08-10T06:53:52.639Z,96359.69
2018-08-10T06:56:26.903Z,96366.86
2018-08-10T06:59:01.491Z,96371.83
2018-08-10T07:01:36.142Z,96369.80
2018-08-10T07:04:11.073Z,96366.96
2018-08-10T07:06:45.524Z,96373.13
2018-08-10T07:09:20.769Z,96377.26
2018-08-10T07:12:39.226Z,96376.04
2018-08-10T07:15:13.990Z,96383.55
2018-08-10T07:17:48.744Z,96384.13
2018-08-10T07:20:23.388Z,96392.02
2018-08-10T07:22:57.829Z,96393.44
2018-08-10T07:25:32.764Z,96391.72
2018-08-10T07:28:07.944Z,96403.96
2018-08-10T07:30:42.676Z,96414.16
2018-08-10T07:33:17.071Z,96424.74
2018-08-10T07:35:52.240Z,96431.89
2018-08-10T07:38:26.645Z,96437.55
2018-08-10T07:41:01.237Z,96436.86
2018-08-10T07:43:36.132Z,96440.39
2018-08-10T07:46:10.576Z,96441.61
2018-08-10T07:48:48.813Z,96443.47
2018-08-10T07:51:23.736Z,96444.63
2018-08-10T07:53:58.364Z,96441.36
2018-08-10T07:56:33.473Z,96449.33
2018-08-10T07:59:10.510Z,96444.73
2018-08-10T08:01:49.780Z,96444.42
2018-08-10T08:04:24.428Z,96439.17
2018-08-10T08:06:58.938Z,96445.69
2018-08-10T08:09:33.616Z,96443.67
2018-08-10T08:12:10.938Z,96448.86
2018-08-10T08:14:47.656Z,96446.73
2018-08-10T08:17:29.193Z,96454.48
2018-08-10T08:20:07.264Z,96455.59
2018-08-10T08:22:42.126Z,96467.22
2018-08-10T08:25:17.079Z,96466.98
2018-08-10T08:27:52.117Z,96464.48
2018-08-10T08:30:27.012Z,96472.91
2018-08-10T08:33:05.033Z,96470.19
2018-08-10T08:35:40.237Z,96474.42
2018-08-10T08:38:26.473Z,96481.56
2018-08-10T08:41:01.117Z,96479.04
2018-08-10T08:46:06.333Z,96477.83
2018-08-10T08:48:44.996Z,96482.20
2018-08-10T08:51:30.211Z,96484.35
2018-08-10T08:57:01.331Z,96483.12
2018-08-10T08:59:36.546Z,96487.39
2018-08-10T09:02:18.530Z,96487.80
2018-08-10T09:04:59.612Z,96491.34
2018-08-10T09:07:34.310Z,96502.78
2018-08-10T09:10:11.926Z,96505.39
2018-08-10T09:12:46.588Z,96512.58
2018-08-10T09:15:22.214Z,96504.06
2018-08-10T09:17:57.192Z,96501.58
2018-08-10T09:20:31.835Z,96507.23
2018-08-10T09:23:07.969Z,96505.52
2018-08-10T09:25:42.288Z,96510.17
2018-08-10T09:28:16.848Z,96510.10
2018-08-10T09:30:51.820Z,96510.73
2018-08-10T09:33:26.352Z,96516.50
2018-08-10T09:36:00.762Z,96511.95
2018-08-10T09:38:35.438Z,96514.70
2018-08-10T09:41:10.505Z,96516.84
2018-08-10T09:43:45.531Z,96518.23
2018-08-10T09:46:20.485Z,96524.38
2018-08-10T09:48:54.957Z,96526.52
2018-08-10T09:51:29.565Z,96527.66
2018-08-10T09:54:05.065Z,96522.39
2018-08-10T09:56:40.396Z,96527.69
2018-08-10T09:59:14.733Z,96529.74
2018-08-10T10:01:55.032Z,96527.64
2018-08-10T10:04:29.585Z,96526.42
2018-08-10T10:07:04.346Z,96532.52
2018-08-10T10:09:39.461Z,96526.34
2018-08-10T10:12:17.231Z,96531.36
2018-08-10T10:14:54.858Z,96532.75
2018-08-10T10:17:29.630Z,96528.35
2018-08-10T10:20:05.544Z,96530.79
2018-08-10T10:22:40.292Z,96534.26
2018-08-10T10:25:15.140Z,96535.41
2018-08-10T10:27:49.881Z,96536.45
2018-08-10T10:30:24.430Z,96532.91
2018-08-10T10:33:02.890Z,96531.87
2018-08-10T10:35:37.764Z,96534.80
2018-08-10T10:38:12.676Z,96535.71
2018-08-10T10:40:47.808Z,96531.16
2018-08-10T10:43:22.072Z,96522.67
2018-08-10T10:45:56.519Z,96522.56
2018-08-10T10:48:31.885Z,96528.67
2018-08-10T10:51:06.601Z,96525.42
2018-08-10T10:53:43.173Z,96517.10
2018-08-10T10:56:18.059Z,96518.73
2018-08-10T10:58:52.376Z,96517.59
2018-08-10T11:01:27.312Z,96518.69
2018-08-10T11:04:04.589Z,96525.41
2018-08-10T11:06:39.574Z,96522.42
2018-08-10T11:09:14.773Z,96514.08
2018-08-10T11:11:49.696Z,96512.84
2018-08-10T11:14:24.341Z,96518.87
2018-08-10T11:17:00.444Z,96516.00
2018-08-10T11:19:35.021Z,96514.74
2018-08-10T11:22:13.080Z,96514.16
2018-08-10T11:24:48.172Z,96530.47
2018-08-10T11:27:23.367Z,96530.80
2018-08-10T11:29:57.886Z,96515.84
2018-08-10T11:32:33.017Z,96510.87
2018-08-10T11:35:08.333Z,96513.52
2018-08-10T11:37:43.028Z,96512.20
2018-08-10T11:40:17.404Z,96515.06
2018-08-10T11:42:52.422Z,96514.08
2018-08-10T11:45:26.791Z,96514.20
2018-08-10T11:48:01.996Z,96517.64
2018-08-10T11:50:36.605Z,96518.80
2018-08-10T11:53:28.848Z,96514.94
2018-08-10T11:56:06.573Z,96513.84
2018-08-10T11:58:43.166Z,96508.48
2018-08-10T12:01:18.697Z,96511.30
2018-08-10T12:03:53.931Z,96514.38
2018-08-10T12:06:28.802Z,96511.62
2018-08-10T12:09:04.756Z,96510.37
2018-08-10T12:11:39.683Z,96506.70
2018-08-10T12:14:14.171Z,96501.95
2018-08-10T12:16:49.516Z,96503.85
2018-08-10T12:19:23.889Z,96497.18
2018-08-10T12:21:58.176Z,96502.07
2018-08-10T12:24:33.284Z,96504.64
2018-08-10T12:27:08.761Z,96504.26
2018-08-10T12:29:43.632Z,96510.77
2018-08-10T12:32:18.311Z,96510.32
2018-08-10T12:34:52.808Z,96507.09
2018-08-10T12:37:27.673Z,96501.84
2018-08-10T12:40:02.739Z,96507.81
2018-08-10T12:42:37.528Z,96501.33
2018-08-10T12:45:12.311Z,96505.00
2018-08-10T12:47:47.391Z,96506.39
2018-08-10T12:50:22.133Z,96504.75
2018-08-10T12:52:57.118Z,96506.69
2018-08-10T12:55:32.330Z,96505.11
2018-08-10T12:58:07.065Z,96505.58
2018-08-10T13:00:41.968Z,96494.38
2018-08-10T13:03:18.305Z,96503.85
2018-08-10T13:05:56.201Z,96498.79
2018-08-10T13:08:31.092Z,96494.38
2018-08-10T13:11:05.636Z,96508.19
2018-08-10T13:13:40.265Z,96495.70
2018-08-10T13:16:15.153Z,96495.41
2018-08-10T13:18:49.760Z,96505.05
2018-08-10T13:21:24.763Z,96503.86
2018-08-10T13:23:59.754Z,96505.12
2018-08-10T13:26:34.509Z,96498.06
2018-08-10T13:29:09.120Z,96501.59
2018-08-10T13:31:43.528Z,96496.72
2018-08-10T13:34:18.312Z,96498.61
2018-08-10T13:36:54.633Z,96498.86
2018-08-10T13:39:35.725Z,96495.11
2018-08-10T13:42:16.741Z,96497.47
2018-08-10T13:44:54.556Z,96487.79
2018-08-10T13:47:32.973Z,96488.35
2018-08-10T13:50:20.577Z,96493.16
2018-08-10T13:52:59.050Z,96498.00
2018-08-10T13:55:47.171Z,96492.03
2018-08-10T13:58:29.267Z,96493.73
2018-08-10T14:01:09.633Z,96492.85
2018-08-10T14:03:55.003Z,96484.33
2018-08-10T14:06:34.909Z,96468.77
2018-08-10T14:09:27.320Z,96468.92
2018-08-10T14:12:06.039Z,96468.62
2018-08-10T14:14:47.829Z,96469.63
2018-08-10T14:17:26.422Z,96475.43
2018-08-10T14:20:02.391Z,96471.72
2018-08-10T14:22:42.627Z,96469.52
2018-08-10T14:25:21.065Z,96467.16
2018-08-10T14:27:57.676Z,96463.19
2018-08-10T14:30:36.369Z,96460.77
2018-08-10T14:33:12.595Z,96463.41
2018-08-10T14:35:49.122Z,96464.30
2018-08-10T14:38:30.174Z,96467.88
2018-08-10T14:41:06.234Z,96468.31
2018-08-10T14:43:43.265Z,96462.52
2018-08-10T14:46:20.612Z,96466.27
2018-08-10T14:49:02.366Z,96467.23
2018-08-10T14:51:38.970Z,96469.72
2018-08-10T14:54:22.316Z,96473.66
2018-08-10T14:57:03.413Z,96455.30
2018-08-10T14:59:39.962Z,96448.92
2018-08-10T15:02:16.095Z,96445.55
2018-08-10T15:04:52.489Z,96453.69
2018-08-10T15:07:29.078Z,96454.95
2018-08-10T15:10:06.515Z,96450.28
2018-08-10T15:12:42.939Z,96443.33
2018-08-10T15:15:22.079Z,96442.50
2018-08-10T15:17:59.493Z,96442.57
2018-08-10T15:20:36.612Z,96446.98
2018-08-10T15:23:12.454Z,96445.36
2018-08-10T15:25:47.878Z,96447.73
2018-08-10T15:28:23.228Z,96441.75
2018-08-10T15:30:58.979Z,96436.23
2018-08-10T15:33:33.857Z,96435.95
2018-08-10T15:36:08.428Z,96435.30
2018-08-10T15:38:44.905Z,96434.34
2018-08-10T15:41:19.984Z,96432.34
2018-08-10T15:43:54.820Z,96433.40
2018-08-10T15:46:29.184Z,96428.44
2018-08-10T15:49:03.639Z,96423.61
2018-08-10T15:51:39.986Z,96422.73
2018-08-10T15:54:14.442Z,96423.19
2018-08-10T15:56:48.849Z,96421.06
2018-08-10T15:59:23.348Z,96424.24
2018-08-10T16:01:57.864Z,96427.55
2018-08-10T16:04:32.612Z,96432.44
2018-08-10T16:07:07.268Z,96430.11
2018-08-10T16:09:42.024Z,96429.52
2018-08-10T16:12:16.529Z,96432.61
2018-08-10T16:14:51.373Z,96432.02
2018-08-10T16:17:26.227Z,96430.84
2018-08-10T16:20:01.276Z,96426.06
2018-08-10T16:22:36.455Z,96420.78
2018-08-10T16:25:11.902Z,96420.56
2018-08-10T16:27:46.372Z,96425.77
2018-08-10T16:30:21.269Z,96428.11
2018-08-10T16:32:56.820Z,96432.52
2018-08-10T16:35:31.422Z,96436.97
2018-08-10T16:38:06.109Z,96433.02
2018-08-10T16:40:40.523Z,96434.67
2018-08-10T16:43:14.927Z,96425.77
2018-08-10T16:45:49.402Z,96419.70
2018-08-10T16:48:24.280Z,96426.73
2018-08-10T16:50:59.046Z,96420.38
2018-08-10T16:53:34.042Z,96423.75
2018-08-10T16:56:08.580Z,96420.06
2018-08-10T16:58:43.029Z,96425.47
2018-08-10T17:01:17.681Z,96421.45
2018-08-10T17:03:52.348Z,96428.61
2018-08-10T17:06:28.803Z,96431.76
2018-08-10T17:09:04.141Z,96426.72
2018-08-10T17:11:39.086Z,96423.12
2018-08-10T17:14:13.896Z,96421.84
2018-08-10T17:16:48.336Z,96420.31
2018-08-10T17:19:22.792Z,96421.05
2018-08-10T17:21:57.478Z,96423.97
2018-08-10T17:24:32.475Z,96424.08
2018-08-10T17:27:07.084Z,96427.98
2018-08-10T17:29:42.090Z,96417.46
2018-08-10T17:32:16.577Z,96423.95
2018-08-10T17:34:51.344Z,96427.69
2018-08-10T17:37:25.742Z,96421.02
2018-08-10T17:40:00.588Z,96422.12
2018-08-10T17:42:35.256Z,96419.29
2018-08-10T17:45:12.570Z,96415.25
2018-08-10T17:47:47.132Z,96418.23
2018-08-10T17:50:22.196Z,96420.06
2018-08-10T17:52:57.014Z,96418.75
2018-08-10T17:55:31.579Z,96419.88
2018-08-10T17:58:06.412Z,96420.99
2018-08-10T18:00:40.957Z,96425.24
2018-08-10T18:03:15.864Z,96410.04
2018-08-10T18:05:50.728Z,96414.80
2018-08-10T18:08:25.545Z,96412.50
2018-08-10T18:11:00.280Z,96408.77
2018-08-10T18:13:35.059Z,96415.98
2018-08-10T18:16:10.143Z,96417.93
2018-08-10T18:18:44.957Z,96422.00
2018-08-10T18:21:19.848Z,96427.35
2018-08-10T18:23:54.324Z,96425.73
2018-08-10T18:26:28.840Z,96422.09
2018-08-10T18:29:03.367Z,96418.86
2018-08-10T18:31:38.169Z,96417.45
2018-08-10T18:34:12.807Z,96414.03
2018-08-10T18:36:47.628Z,96421.32
2018-08-10T18:39:22.245Z,96420.95
2018-08-10T18:41:59.009Z,96415.77
2018-08-10T18:44:33.528Z,96419.20
2018-08-10T18:47:08.092Z,96417.30
2018-08-10T18:49:42.952Z,96418.49
2018-08-10T18:52:17.448Z,96409.50
2018-08-10T18:54:52.195Z,96416.39
2018-08-10T18:57:27.441Z,96423.87
2018-08-10T19:00:01.945Z,96423.98
2018-08-10T19:02:36.751Z,96419.03
2018-08-10T19:05:12.780Z,96418.02
2018-08-10T19:07:48.577Z,96422.55
2018-08-10T19:10:25.696Z,96419.92
2018-08-10T19:13:00.137Z,96420.03
2018-08-10T19:15:53.234Z,96423.37
2018-08-10T19:18:31.397Z,96422.04
2018-08-10T19:21:07.166Z,96418.20
2018-08-10T19:23:41.924Z,96419.71
2018-08-10T19:26:16.625Z,96423.94
2018-08-10T19:28:51.979Z,96423.12
2018-08-10T19:31:29.247Z,96425.45
2018-08-10T19:34:04.735Z,96425.72
2018-08-10T19:36:39.155Z,96429.56
2018-08-10T19:39:13.592Z,96424.72
2018-08-10T19:41:48.571Z,96426.33
2018-08-10T19:44:23.395Z,96437.34
2018-08-10T19:46:58.857Z,96426.30
2018-08-10T19:49:33.993Z,96423.97
2018-08-10T19:52:08.551Z,96417.20
2018-08-10T19:54:43.380Z,96415.08
2018-08-10T19:57:18.167Z,96413.73
2018-08-10T19:59:52.494Z,96407.17
2018-08-10T20:02:27.049Z,96406.16
2018-08-10T20:05:02.033Z,96412.38
2018-08-10T20:07:37.052Z,96407.43
2018-08-10T20:10:12.597Z,96402.78
2018-08-10T20:12:47.147Z,96410.95
2018-08-10T20:15:21.679Z,96409.59
2018-08-10T20:17:56.380Z,96410.51
2018-08-10T20:20:31.219Z,96405.75
2018-08-10T20:23:05.844Z,96397.38
2018-08-10T20:25:40.663Z,96388.89
2018-08-10T20:28:15.567Z,96391.52
2018-08-10T20:30:50.161Z,96398.78
2018-08-10T20:33:24.725Z,96399.65
2018-08-10T20:35:59.212Z,96397.73
2018-08-10T20:38:34.019Z,96400.64
2018-08-10T20:41:09.084Z,96395.18
2018-08-10T20:43:44.109Z,96406.68
2018-08-10T20:46:19.098Z,96401.09
2018-08-10T20:48:53.469Z,96390.13
2018-08-10T20:51:28.132Z,96391.00
2018-08-10T20:54:02.421Z,96391.80
2018-08-10T20:56:36.844Z,96394.02
2018-08-10T20:59:11.349Z,96402.17
2018-08-10T21:01:46.204Z,96394.25
2018-08-10T21:04:21.531Z,96383.01
2018-08-10T21:06:56.427Z,96383.09
2018-08-10T21:09:31.297Z,96386.72
2018-08-10T21:12:05.980Z,96384.80
2018-08-10T21:14:40.738Z,96381.28
2018-08-10T21:17:15.578Z,96380.41
2018-08-10T21:19:50.408Z,96380.39
2018-08-10T21:22:24.928Z,96380.44
2018-08-10T21:24:59.553Z,96379.47
2018-08-10T21:27:34.008Z,96378.91
2018-08-10T21:30:12.632Z,96376.17
2018-08-10T21:32:47.456Z,96377.34
2018-08-10T21:35:22.543Z,96380.21
2018-08-10T21:37:56.957Z,96374.05
2018-08-10T21:40:31.757Z,96375.28
2018-08-10T21:43:06.475Z,96376.78
2018-08-10T21:45:41.900Z,96376.05
2018-08-10T21:48:16.675Z,96371.05
2018-08-10T21:50:51.104Z,96379.72
2018-08-10T21:53:25.649Z,96376.80
2018-08-10T21:56:00.264Z,96377.77
2018-08-10T21:58:34.799Z,96374.91
2018-08-10T22:01:09.634Z,96384.08
2018-08-10T22:03:43.918Z,96374.27
2018-08-10T22:06:19.287Z,96385.51
2018-08-10T22:08:54.388Z,96375.61
2018-08-10T22:11:35.297Z,96380.03
2018-08-10T22:14:16.090Z,96375.34
2018-08-10T22:16:56.686Z,96378.92
2018-08-10T22:19:31.233Z,96376.73
2018-08-10T22:22:06.088Z,96376.88
2018-08-10T22:24:40.632Z,96373.91
2018-08-10T22:27:15.572Z,96369.09
2018-08-10T22:29:50.443Z,96368.02
2018-08-10T22:32:25.235Z,96374.56
2018-08-10T22:35:00.024Z,96371.83
2018-08-10T22:37:34.852Z,96373.52
2018-08-10T22:40:09.649Z,96364.20
2018-08-10T22:42:44.032Z,96368.50
2018-08-10T22:45:19.200Z,96363.41
2018-08-10T22:47:54.229Z,96370.71
2018-08-10T22:50:29.341Z,96366.02
2018-08-10T22:53:03.879Z,96367.67
2018-08-10T22:55:38.459Z,96363.91
2018-08-10T22:58:13.013Z,96358.30
2018-08-10T23:00:48.011Z,96352.00
2018-08-10T23:03:22.896Z,96353.09
2018-08-10T23:05:57.328Z,96351.27
2018-08-10T23:08:31.834Z,96352.77
2018-08-10T23:11:07.284Z,96346.03
2018-08-10T23:13:42.171Z,96339.37
2018-08-10T23:16:16.604Z,96343.37
2018-08-10T23:18:51.073Z,96344.19
2018-08-10T23:21:25.973Z,96342.37
2018-08-10T23:24:00.369Z,96346.36
2018-08-10T23:26:35.534Z,96345.13
2018-08-10T23:29:10.528Z,96343.39
2018-08-10T23:31:45.828Z,96343.89
2018-08-10T23:34:20.959Z,96341.38
2018-08-10T23:36:55.507Z,96341.73
2018-08-10T23:39:30.259Z,96339.58
2018-08-10T23:42:05.393Z,96340.39
2018-08-10T23:44:40.265Z,96338.95
2018-08-10T23:47:14.763Z,96338.14
2018-08-10T23:49:50.397Z,96333.61
2018-08-10T23:52:25.348Z,96327.61
2018-08-10T23:54:59.675Z,96328.56
2018-08-10T23:57:34.720Z,96329.92
